Time;durP1;ratioP1;P1;durP2;ratioP2;P2;SDS_P1;SDS_P2;PMS_P1;PMS_P2;Temp;Humidity;BMP_temperature;BMP_pressure;BME280_temperature;BME280_humidity;BME280_pressure;Samples;Min_cycle;Max_cycle;Signal;HPM_P1;HPM_P2
2021/08/27 00:00:00;;;;;;;0.00;0.00;;;18.80;99.90;;;;;;5073410;28;20120;-89
2021/08/27 00:02:25;;;;;;;0.10;0.10;;;18.90;99.90;;;;;;5073679;28;20090;-89
2021/08/27 00:04:51;;;;;;;0.05;0.05;;;18.80;99.90;;;;;;5071920;28;20141;-89
2021/08/27 00:07:18;;;;;;;0.00;0.00;;;18.80;99.90;;;;;;5072257;28;20123;-89
2021/08/27 00:09:44;;;;;;;0.00;0.00;;;18.80;99.90;;;;;;5071888;28;20078;-89
2021/08/27 00:12:10;;;;;;;0.00;0.00;;;18.80;99.90;;;;;;5073530;28;20029;-89
2021/08/27 00:14:36;;;;;;;0.00;0.00;;;18.80;99.90;;;;;;5073133;28;20415;-89
2021/08/27 00:17:01;;;;;;;0.00;0.00;;;18.80;99.90;;;;;;5072011;28;20027;-89
2021/08/27 00:19:27;;;;;;;0.00;0.00;;;18.80;99.90;;;;;;5071736;28;20032;-89
2021/08/27 00:21:53;;;;;;;0.00;0.00;;;18.80;99.90;;;;;;5071875;28;20067;-89
2021/08/27 00:24:18;;;;;;;0.08;0.08;;;18.80;99.90;;;;;;5071711;28;20028;-89
2021/08/27 00:26:45;;;;;;;0.10;0.10;;;18.80;99.90;;;;;;5071936;28;20165;-89
2021/08/27 00:29:11;;;;;;;0.00;0.00;;;18.80;99.90;;;;;;5071710;28;20029;-89
2021/08/27 00:31:36;;;;;;;0.10;0.10;;;18.80;99.90;;;;;;5071841;28;20039;-89
2021/08/27 00:34:02;;;;;;;0.00;0.00;;;18.80;99.90;;;;;;5071745;28;20035;-89
2021/08/27 00:36:27;;;;;;;0.00;0.00;;;18.80;99.90;;;;;;5072105;28;20033;-89
2021/08/27 00:38:53;;;;;;;0.05;0.05;;;18.80;99.90;;;;;;5071642;28;20046;-89
2021/08/27 00:41:20;;;;;;;0.00;0.00;;;18.80;99.90;;;;;;5074480;28;20040;-89
2021/08/27 00:43:46;;;;;;;0.00;0.00;;;18.70;99.90;;;;;;5075325;28;20016;-89
2021/08/27 00:46:12;;;;;;;0.00;0.00;;;18.80;99.90;;;;;;5075365;28;20055;-89
2021/08/27 00:48:38;;;;;;;0.00;0.00;;;18.70;99.90;;;;;;5076617;28;20465;-89
2021/08/27 00:51:05;;;;;;;0.00;0.00;;;18.70;99.90;;;;;;5075139;28;20032;-89
2021/08/27 00:53:31;;;;;;;0.00;0.00;;;18.70;99.90;;;;;;5075219;28;20027;-89
2021/08/27 00:55:57;;;;;;;0.00;0.00;;;18.60;99.90;;;;;;5075152;28;20036;-89
2021/08/27 00:58:23;;;;;;;0.00;0.00;;;18.60;99.90;;;;;;5075077;28;20023;-89
2021/08/27 01:00:49;;;;;;;0.00;0.00;;;18.60;99.90;;;;;;5076603;28;20428;-89
2021/08/27 01:03:18;;;;;;;0.00;0.00;;;18.60;99.90;;;;;;5074975;28;20028;-89
2021/08/27 01:06:00;;;;;;;0.00;0.00;;;18.60;99.90;;;;;;5075045;28;20393;-89
2021/08/27 01:08:32;;;;;;;0.00;0.00;;;18.70;99.90;;;;;;5074968;28;20017;-89
2021/08/27 01:11:14;;;;;;;0.10;0.10;;;18.70;99.90;;;;;;5074973;28;20032;-89
2021/08/27 01:13:54;;;;;;;0.10;0.10;;;18.70;99.90;;;;;;5074874;28;20179;-89
2021/08/27 01:16:27;;;;;;;0.10;0.10;;;18.60;99.90;;;;;;5076273;28;20119;-89
2021/08/27 01:19:24;;;;;;;0.00;0.00;;;18.70;99.90;;;;;;5076036;28;20035;-89
2021/08/27 01:22:02;;;;;;;0.00;0.00;;;18.60;99.90;;;;;;5076297;28;20044;-89
2021/08/27 01:24:30;;;;;;;0.08;0.08;;;18.60;99.90;;;;;;5075872;28;20029;-90
2021/08/27 01:27:02;;;;;;;0.10;0.10;;;18.50;99.90;;;;;;5074555;28;20037;-90
2021/08/27 01:29:43;;;;;;;0.08;0.08;;;18.60;99.90;;;;;;5074480;28;20149;-89
2021/08/27 01:32:20;;;;;;;0.10;0.10;;;18.50;99.90;;;;;;5074759;28;20482;-89
2021/08/27 01:34:47;;;;;;;0.00;0.00;;;18.50;99.90;;;;;;5074766;28;20033;-89
2021/08/27 01:37:18;;;;;;;0.00;0.00;;;18.50;99.90;;;;;;5074876;28;20496;-89
2021/08/27 01:39:48;;;;;;;0.00;0.00;;;18.40;99.90;;;;;;5074565;28;20466;-90
2021/08/27 01:42:16;;;;;;;0.10;0.10;;;18.40;99.90;;;;;;5074266;28;20084;-90
2021/08/27 01:44:46;;;;;;;0.00;0.00;;;18.40;99.90;;;;;;5074452;28;20016;-91
2021/08/27 01:47:15;;;;;;;0.00;0.00;;;18.30;99.90;;;;;;5075821;28;20078;-90
2021/08/27 01:49:42;;;;;;;0.00;0.00;;;18.30;99.90;;;;;;5074361;28;20032;-90
2021/08/27 01:52:09;;;;;;;0.00;0.00;;;18.30;99.90;;;;;;5074038;28;20446;-89
2021/08/27 01:54:36;;;;;;;0.10;0.10;;;18.20;99.90;;;;;;5074093;28;20052;-90
2021/08/27 01:57:04;;;;;;;0.05;0.05;;;18.20;99.90;;;;;;5075757;28;20032;-89
2021/08/27 01:59:35;;;;;;;0.10;0.10;;;18.20;99.90;;;;;;5075873;28;20051;-89
2021/08/27 02:02:02;;;;;;;0.00;0.00;;;18.10;99.90;;;;;;5075543;28;20474;-89
2021/08/27 02:04:29;;;;;;;0.00;0.00;;;18.10;99.90;;;;;;5073952;28;20405;-89
2021/08/27 02:06:57;;;;;;;0.10;0.10;;;18.20;99.90;;;;;;5073993;28;20063;-89
2021/08/27 02:09:23;;;;;;;0.00;0.00;;;18.10;99.90;;;;;;5073857;28;20086;-90
2021/08/27 02:11:51;;;;;;;0.05;0.05;;;18.10;99.90;;;;;;5076910;28;20515;-89
2021/08/27 02:14:17;;;;;;;0.00;0.00;;;18.10;99.90;;;;;;5076931;28;20477;-89
2021/08/27 02:16:43;;;;;;;0.10;0.10;;;18.10;99.90;;;;;;5077456;28;20025;-89
2021/08/27 02:19:09;;;;;;;0.10;0.10;;;18.10;99.90;;;;;;5074929;28;20524;-89
2021/08/27 02:21:40;;;;;;;0.10;0.10;;;18.10;99.90;;;;;;5073830;28;20037;-89
2021/08/27 02:24:15;;;;;;;0.10;0.10;;;18.10;99.90;;;;;;5073742;28;20020;-89
2021/08/27 02:26:45;;;;;;;0.00;0.00;;;18.10;99.90;;;;;;5073601;28;20027;-89
2021/08/27 02:29:14;;;;;;;0.00;0.00;;;18.10;99.90;;;;;;5073559;28;20112;-89
2021/08/27 02:31:46;;;;;;;0.05;0.05;;;18.10;99.90;;;;;;5073554;28;20025;-89
2021/08/27 02:34:15;;;;;;;0.10;0.10;;;18.10;99.90;;;;;;5075257;28;20032;-89
2021/08/27 02:36:43;;;;;;;0.10;0.10;;;18.10;99.90;;;;;;5073522;28;20032;-89
2021/08/27 02:39:10;;;;;;;0.00;0.00;;;18.10;99.90;;;;;;5073191;28;20074;-90
2021/08/27 02:41:36;;;;;;;0.10;0.10;;;18.10;99.90;;;;;;5074561;28;20120;-90
2021/08/27 02:44:02;;;;;;;0.10;0.10;;;18.10;99.90;;;;;;5072974;28;20112;-90
2021/08/27 02:46:27;;;;;;;0.00;0.00;;;18.20;99.90;;;;;;5073200;28;20384;-90
2021/08/27 02:48:53;;;;;;;0.10;0.10;;;18.20;99.90;;;;;;5073001;28;20110;-89
2021/08/27 02:51:25;;;;;;;0.08;0.08;;;18.20;99.90;;;;;;5073119;28;20045;-90
2021/08/27 02:53:54;;;;;;;0.10;0.10;;;18.20;99.90;;;;;;5072930;28;20107;-90
2021/08/27 02:56:24;;;;;;;0.08;0.08;;;18.20;99.90;;;;;;5072896;28;20115;-89
2021/08/27 02:58:52;;;;;;;0.10;0.10;;;18.20;99.90;;;;;;5072829;28;20074;-90
2021/08/27 03:01:35;;;;;;;0.05;0.05;;;18.20;99.90;;;;;;5075677;28;20066;-90
2021/08/27 03:04:07;;;;;;;0.10;0.10;;;18.20;99.90;;;;;;5073932;28;20074;-91
2021/08/27 03:06:44;;;;;;;0.10;0.10;;;18.20;99.90;;;;;;5075462;28;20035;-91
2021/08/27 03:09:10;;;;;;;0.05;0.05;;;18.20;99.90;;;;;;5073562;28;20036;-90
2021/08/27 03:11:44;;;;;;;0.10;0.10;;;18.20;99.90;;;;;;5072891;28;20029;-90
2021/08/27 03:14:24;;;;;;;0.10;0.10;;;18.20;99.90;;;;;;5072504;28;20028;-89
2021/08/27 03:16:52;;;;;;;0.00;0.00;;;18.10;99.90;;;;;;5073290;28;20441;-90
2021/08/27 03:19:25;;;;;;;0.00;0.00;;;18.10;99.90;;;;;;5073195;28;20033;-90
2021/08/27 03:22:10;;;;;;;0.10;0.10;;;18.10;99.90;;;;;;5072388;28;20051;-89
2021/08/27 03:24:41;;;;;;;0.10;0.10;;;18.10;99.90;;;;;;5072654;28;20024;-89
2021/08/27 03:27:14;;;;;;;0.08;0.08;;;18.10;99.90;;;;;;5072710;28;20040;-90
2021/08/27 03:29:48;;;;;;;0.10;0.10;;;18.10;99.90;;;;;;5073494;28;20020;-90
2021/08/27 03:32:14;;;;;;;0.10;0.10;;;18.10;99.90;;;;;;5072306;28;20159;-89
2021/08/27 03:34:42;;;;;;;0.00;0.00;;;18.10;99.90;;;;;;5073727;28;20499;-90
2021/08/27 03:37:09;;;;;;;0.08;0.08;;;18.10;99.90;;;;;;5072620;28;20033;-90
2021/08/27 03:39:36;;;;;;;0.00;0.00;;;18.10;99.90;;;;;;5072271;28;20025;-90
2021/08/27 03:42:03;;;;;;;0.10;0.10;;;18.10;99.90;;;;;;5072440;28;20041;-90
2021/08/27 03:44:31;;;;;;;0.00;0.00;;;18.10;99.90;;;;;;5072225;28;20021;-91
2021/08/27 03:46:58;;;;;;;0.10;0.10;;;18.20;99.90;;;;;;5072332;28;20029;-90
2021/08/27 03:49:24;;;;;;;0.10;0.10;;;18.10;99.90;;;;;;5073464;28;20462;-90
2021/08/27 03:51:51;;;;;;;0.00;0.00;;;18.20;99.90;;;;;;5072229;28;20079;-90
2021/08/27 03:54:19;;;;;;;0.00;0.00;;;18.20;99.90;;;;;;5072041;28;20138;-90
2021/08/27 03:56:46;;;;;;;0.10;0.10;;;18.20;99.90;;;;;;5072225;28;20041;-90
2021/08/27 03:59:13;;;;;;;0.00;0.00;;;18.20;99.90;;;;;;5072056;28;20493;-91
2021/08/27 04:01:40;;;;;;;0.10;0.10;;;18.20;99.90;;;;;;5073551;28;20100;-90
2021/08/27 04:04:07;;;;;;;0.10;0.10;;;18.20;99.90;;;;;;5073294;28;20066;-90
2021/08/27 04:06:34;;;;;;;0.10;0.10;;;18.20;99.90;;;;;;5073467;28;20396;-89
2021/08/27 04:09:00;;;;;;;0.00;0.00;;;18.20;99.90;;;;;;5075054;28;20512;-89
2021/08/27 04:11:25;;;;;;;0.00;0.00;;;18.20;99.90;;;;;;5070235;28;20174;-90
2021/08/27 04:13:51;;;;;;;0.10;0.10;;;18.30;99.90;;;;;;5070477;28;20136;-90
2021/08/27 04:16:17;;;;;;;0.00;0.00;;;18.30;99.90;;;;;;5074994;28;20024;-89
2021/08/27 04:18:42;;;;;;;0.00;0.00;;;18.40;99.90;;;;;;5077470;28;20465;-89
2021/08/27 04:21:08;;;;;;;0.00;0.00;;;18.50;99.90;;;;;;5076445;28;20544;-90
2021/08/27 04:23:34;;;;;;;0.10;0.10;;;18.50;99.90;;;;;;5075751;28;20028;-89
2021/08/27 04:26:00;;;;;;;0.00;0.00;;;18.60;99.90;;;;;;5075771;28;20060;-91
2021/08/27 04:28:25;;;;;;;0.00;0.00;;;18.70;99.90;;;;;;5075757;28;20078;-89
2021/08/27 04:30:51;;;;;;;0.10;0.10;;;18.80;99.90;;;;;;5076913;28;20028;-89
2021/08/27 04:33:18;;;;;;;0.10;0.10;;;18.90;99.90;;;;;;5075530;28;20086;-89
2021/08/27 04:35:43;;;;;;;0.00;0.00;;;18.90;99.90;;;;;;5077156;28;20062;-90
2021/08/27 04:38:09;;;;;;;0.10;0.10;;;18.90;99.90;;;;;;5075647;28;20106;-90
2021/08/27 04:40:35;;;;;;;0.00;0.00;;;18.90;99.90;;;;;;5077057;28;20070;-90
2021/08/27 04:43:01;;;;;;;0.00;0.00;;;18.90;99.90;;;;;;5075482;28;20082;-90
2021/08/27 04:45:26;;;;;;;0.00;0.00;;;18.90;99.90;;;;;;5075544;28;20381;-91
2021/08/27 04:47:52;;;;;;;0.00;0.00;;;18.80;99.90;;;;;;5077151;28;20071;-91
2021/08/27 04:50:18;;;;;;;0.10;0.10;;;18.80;99.90;;;;;;5075527;28;20020;-91
2021/08/27 04:52:43;;;;;;;0.10;0.10;;;18.80;99.90;;;;;;5075937;28;20029;-91
2021/08/27 04:55:09;;;;;;;0.00;0.00;;;18.70;99.90;;;;;;5077008;28;20035;-90
2021/08/27 04:57:40;;;;;;;0.00;0.00;;;18.70;99.90;;;;;;5076256;28;20082;-90
2021/08/27 05:00:08;;;;;;;0.00;0.00;;;18.60;99.90;;;;;;5077211;28;20016;-90
2021/08/27 05:02:35;;;;;;;0.03;0.03;;;18.60;99.90;;;;;;5075639;28;20037;-90
2021/08/27 05:05:02;;;;;;;0.00;0.00;;;18.50;99.90;;;;;;5076572;28;20048;-90
2021/08/27 05:07:28;;;;;;;0.10;0.10;;;18.50;99.90;;;;;;5074965;28;20039;-90
2021/08/27 05:09:54;;;;;;;0.05;0.05;;;18.50;99.90;;;;;;5075142;28;20028;-90
2021/08/27 05:12:19;;;;;;;0.00;0.00;;;18.60;99.90;;;;;;5075435;28;20457;-90
2021/08/27 05:14:45;;;;;;;0.00;0.00;;;18.60;99.90;;;;;;5075114;28;20383;-90
2021/08/27 05:17:11;;;;;;;0.00;0.00;;;18.60;99.90;;;;;;5075234;28;20039;-90
2021/08/27 05:19:37;;;;;;;0.00;0.00;;;18.60;99.90;;;;;;5076176;28;20020;-90
2021/08/27 05:22:03;;;;;;;0.03;0.03;;;18.60;99.90;;;;;;5075384;28;20037;-90
2021/08/27 05:24:29;;;;;;;0.10;0.10;;;18.60;99.90;;;;;;5074799;28;20039;-91
2021/08/27 05:26:54;;;;;;;0.10;0.10;;;18.50;99.90;;;;;;5075436;28;20118;-90
2021/08/27 05:29:20;;;;;;;0.10;0.10;;;18.50;99.90;;;;;;5074924;28;20139;-90
2021/08/27 05:31:46;;;;;;;0.10;0.10;;;18.50;99.90;;;;;;5074821;28;20036;-90
2021/08/27 05:34:12;;;;;;;0.10;0.10;;;18.50;99.90;;;;;;5076203;28;20355;-90
2021/08/27 05:36:37;;;;;;;0.08;0.08;;;18.50;99.90;;;;;;5074992;28;20024;-91
2021/08/27 05:39:04;;;;;;;0.00;0.00;;;18.40;99.90;;;;;;5075397;28;20099;-90
2021/08/27 05:41:29;;;;;;;0.00;0.00;;;18.40;99.90;;;;;;5075666;28;20066;-90
2021/08/27 05:43:58;;;;;;;0.00;0.00;;;18.50;99.90;;;;;;5081823;28;20017;-90
2021/08/27 05:46:24;;;;;;;0.00;0.00;;;18.50;99.90;;;;;;5086837;28;20115;-90
2021/08/27 05:48:50;;;;;;;0.00;0.00;;;18.60;99.90;;;;;;5085945;28;20024;-89
2021/08/27 05:51:15;;;;;;;0.00;0.00;;;18.60;99.90;;;;;;5074746;28;20501;-91
2021/08/27 05:53:41;;;;;;;0.00;0.00;;;18.60;99.90;;;;;;5072575;28;20035;-91
2021/08/27 05:56:07;;;;;;;0.00;0.00;;;18.70;99.90;;;;;;5074205;28;20020;-91
2021/08/27 05:58:33;;;;;;;0.00;0.00;;;18.70;99.90;;;;;;5076728;28;20020;-91
2021/08/27 06:00:59;;;;;;;0.10;0.10;;;18.80;99.90;;;;;;5075177;28;20028;-90
2021/08/27 06:03:25;;;;;;;0.00;0.00;;;18.90;99.90;;;;;;5075348;28;20048;-91
2021/08/27 06:05:51;;;;;;;0.00;0.00;;;18.90;99.90;;;;;;5073802;28;20032;-91
2021/08/27 06:08:16;;;;;;;0.00;0.00;;;19.00;99.90;;;;;;5075228;28;20064;-90
2021/08/27 06:10:42;;;;;;;0.00;0.00;;;19.00;99.90;;;;;;5075199;28;20032;-90
2021/08/27 06:13:08;;;;;;;0.00;0.00;;;19.00;99.90;;;;;;5073657;28;20035;-90
2021/08/27 06:15:33;;;;;;;0.00;0.00;;;19.00;99.90;;;;;;5075115;28;20039;-90
2021/08/27 06:17:59;;;;;;;0.05;0.05;;;19.00;99.90;;;;;;5073714;28;20524;-90
2021/08/27 06:20:25;;;;;;;0.00;0.00;;;19.00;99.90;;;;;;5074427;28;20624;-91
2021/08/27 06:22:51;;;;;;;0.00;0.00;;;18.90;99.90;;;;;;5076780;28;20050;-91
2021/08/27 06:25:18;;;;;;;0.00;0.00;;;19.00;99.90;;;;;;5082487;28;20024;-90
2021/08/27 06:27:59;;;;;;;0.10;0.10;;;19.00;99.90;;;;;;5086660;28;20033;-91
2021/08/27 06:30:24;;;;;;;0.00;0.00;;;19.00;99.90;;;;;;5078551;28;20039;-91
2021/08/27 06:32:50;;;;;;;0.00;0.00;;;19.00;99.90;;;;;;5077924;28;20029;-91
2021/08/27 06:35:17;;;;;;;0.00;0.00;;;19.10;99.90;;;;;;5081710;28;20035;-89
2021/08/27 06:41:01;;;;;;;0.10;0.10;;;19.00;99.90;;;;;;5086751;28;20036;-90
2021/08/27 06:43:43;;;;;;;0.00;0.00;;;19.10;99.90;;;;;;5077931;28;20036;-90
2021/08/27 06:46:15;;;;;;;0.00;0.00;;;19.10;99.90;;;;;;5084916;28;20074;-92
2021/08/27 06:48:44;;;;;;;0.10;0.10;;;19.10;99.90;;;;;;5076175;28;20056;-92
2021/08/27 06:51:10;;;;;;;0.00;0.00;;;19.10;99.90;;;;;;5077393;28;20354;-91
2021/08/27 06:53:36;;;;;;;0.00;0.00;;;19.10;99.90;;;;;;5086507;28;20046;-92
2021/08/27 06:56:06;;;;;;;0.00;0.00;;;19.10;99.90;;;;;;5087846;28;20028;-90
2021/08/27 06:58:32;;;;;;;0.08;0.08;;;19.10;99.90;;;;;;5080304;28;20024;-90
2021/08/27 07:00:58;;;;;;;0.00;0.00;;;19.00;99.90;;;;;;5074346;28;20029;-91
2021/08/27 07:03:25;;;;;;;0.00;0.00;;;19.00;99.90;;;;;;5073512;28;20040;-87
2021/08/27 07:05:51;;;;;;;0.00;0.00;;;19.00;99.90;;;;;;5070953;28;20071;-89
2021/08/27 07:08:17;;;;;;;0.00;0.00;;;19.00;99.90;;;;;;5074738;28;20032;-89
2021/08/27 07:10:42;;;;;;;0.03;0.03;;;18.90;99.90;;;;;;5073695;28;20021;-89
2021/08/27 07:13:09;;;;;;;0.00;0.00;;;18.90;99.90;;;;;;5071910;28;20089;-89
2021/08/27 07:15:35;;;;;;;0.00;0.00;;;18.90;99.90;;;;;;5072562;28;20017;-91
2021/08/27 07:18:01;;;;;;;0.00;0.00;;;18.90;99.90;;;;;;5074531;28;20029;-90
2021/08/27 07:20:27;;;;;;;0.00;0.00;;;18.90;99.90;;;;;;5072203;28;20112;-90
2021/08/27 07:22:54;;;;;;;0.10;0.10;;;18.90;99.90;;;;;;5071248;28;20222;-90
2021/08/27 07:25:19;;;;;;;0.00;0.00;;;19.00;99.90;;;;;;5071756;28;20020;-90
2021/08/27 07:27:46;;;;;;;0.00;0.00;;;19.10;99.90;;;;;;5071948;28;20031;-92
2021/08/27 07:30:12;;;;;;;0.00;0.00;;;19.10;99.90;;;;;;5070965;28;20111;-91
2021/08/27 07:32:38;;;;;;;0.00;0.00;;;19.20;99.90;;;;;;5070397;28;20108;-91
2021/08/27 07:35:05;;;;;;;0.00;0.00;;;19.30;99.90;;;;;;5072152;28;20536;-93
2021/08/27 07:37:37;;;;;;;0.00;0.00;;;19.40;99.90;;;;;;5074161;28;20115;-93
2021/08/27 07:40:05;;;;;;;0.00;0.00;;;19.50;99.90;;;;;;5074957;28;20461;-89
2021/08/27 07:42:31;;;;;;;0.00;0.00;;;19.50;99.90;;;;;;5071863;28;20028;-91
2021/08/27 07:44:57;;;;;;;0.00;0.00;;;19.60;99.90;;;;;;5071734;28;20028;-90
2021/08/27 07:47:23;;;;;;;0.00;0.00;;;19.60;99.90;;;;;;5073206;28;20066;-90
2021/08/27 07:49:48;;;;;;;0.10;0.10;;;19.80;99.90;;;;;;5071914;28;20025;-89
2021/08/27 07:52:17;;;;;;;0.00;0.00;;;19.80;99.90;;;;;;5070597;28;20047;-89
2021/08/27 07:54:43;;;;;;;0.00;0.00;;;20.00;99.90;;;;;;5069134;28;20036;-92
2021/08/27 07:57:08;;;;;;;0.10;0.10;;;20.00;99.90;;;;;;5071512;28;20394;-90
2021/08/27 07:59:42;;;;;;;0.10;0.10;;;20.10;99.90;;;;;;5075217;28;20031;-91
2021/08/27 08:02:08;;;;;;;0.00;0.00;;;20.10;99.90;;;;;;5067396;28;20594;-90
2021/08/27 08:04:34;;;;;;;0.00;0.00;;;20.10;99.90;;;;;;5067653;28;20231;-90
2021/08/27 08:07:00;;;;;;;0.00;0.00;;;20.10;99.90;;;;;;5069103;28;20504;-91
2021/08/27 08:09:26;;;;;;;0.00;0.00;;;20.20;99.90;;;;;;5071351;28;20025;-90
2021/08/27 08:11:53;;;;;;;0.00;0.00;;;20.40;99.90;;;;;;5072082;28;20024;-91
2021/08/27 08:14:18;;;;;;;0.00;0.00;;;20.60;99.00;;;;;;5078521;28;20025;-90
2021/08/27 08:16:44;;;;;;;0.00;0.00;;;20.70;98.10;;;;;;5072964;28;20111;-91
2021/08/27 08:19:11;;;;;;;0.00;0.00;;;20.80;97.20;;;;;;5074349;28;20033;-93
2021/08/27 08:21:37;;;;;;;0.00;0.00;;;20.80;96.60;;;;;;5077654;28;20021;-90
2021/08/27 08:24:04;;;;;;;0.00;0.00;;;20.80;95.80;;;;;;5081114;28;20028;-93
2021/08/27 08:26:30;;;;;;;0.00;0.00;;;20.80;96.00;;;;;;5074298;28;20128;-92
2021/08/27 08:28:56;;;;;;;0.00;0.00;;;20.90;95.70;;;;;;5070792;28;20028;-91
2021/08/27 08:31:22;;;;;;;0.00;0.00;;;20.90;95.40;;;;;;5073729;28;20437;-90
2021/08/27 08:33:49;;;;;;;0.00;0.00;;;21.00;94.30;;;;;;5070334;28;20074;-91
2021/08/27 08:36:15;;;;;;;0.05;0.05;;;20.90;94.20;;;;;;5068790;28;20036;-91
2021/08/27 08:38:42;;;;;;;0.00;0.00;;;20.90;94.70;;;;;;5069751;28;20542;-92
2021/08/27 08:41:08;;;;;;;0.00;0.00;;;20.90;94.80;;;;;;5069721;28;20544;-92
2021/08/27 08:43:34;;;;;;;0.00;0.00;;;21.00;94.70;;;;;;5071241;28;20044;-93
2021/08/27 08:46:00;;;;;;;0.00;0.00;;;21.00;93.50;;;;;;5070843;28;20489;-93
2021/08/27 08:48:32;;;;;;;0.00;0.00;;;20.80;93.00;;;;;;5072516;28;20058;-92
2021/08/27 08:51:00;;;;;;;0.00;0.00;;;20.80;93.30;;;;;;5072874;28;20039;-90
2021/08/27 08:53:26;;;;;;;0.00;0.00;;;20.70;93.60;;;;;;5090353;22;20024;-93
2021/08/27 08:55:52;;;;;;;0.03;0.03;;;20.70;93.80;;;;;;5070776;28;20036;-92
2021/08/27 08:58:19;;;;;;;0.00;0.00;;;20.80;94.60;;;;;;5071068;28;20429;-91
2021/08/27 09:00:54;;;;;;;0.00;0.00;;;21.20;95.50;;;;;;5074115;28;20024;-93
2021/08/27 09:03:19;;;;;;;0.00;0.00;;;21.80;94.50;;;;;;5082749;28;20114;-89
2021/08/27 09:06:13;;;;;;;0.00;0.00;;;22.10;92.60;;;;;;5081351;28;20020;-93
2021/08/27 09:08:45;;;;;;;0.00;0.00;;;22.40;90.90;;;;;;5076609;28;20485;-91
2021/08/27 09:11:14;;;;;;;0.00;0.00;;;22.40;89.40;;;;;;5074904;28;20047;-91
2021/08/27 09:13:42;;;;;;;0.08;0.00;;;22.20;88.00;;;;;;5074099;28;20032;-93
2021/08/27 09:18:55;;;;;;;0.00;0.00;;;22.00;87.70;;;;;;5093359;28;20437;-89
2021/08/27 09:21:46;;;;;;;0.00;0.00;;;22.00;88.40;;;;;;5095434;28;20043;-92
2021/08/27 09:24:26;;;;;;;0.03;0.03;;;22.00;87.90;;;;;;5089406;28;20032;-93
2021/08/27 09:26:58;;;;;;;0.00;0.00;;;22.00;86.90;;;;;;5094274;28;20413;-93
2021/08/27 09:29:32;;;;;;;0.00;0.00;;;21.90;87.30;;;;;;5097788;28;20526;-91
2021/08/27 09:31:58;;;;;;;0.00;0.00;;;21.90;86.70;;;;;;5094256;28;20127;-92
2021/08/27 09:34:30;;;;;;;0.00;0.00;;;21.80;86.70;;;;;;5096963;28;20024;-91
2021/08/27 09:36:58;;;;;;;0.00;0.00;;;21.90;87.20;;;;;;5096283;28;20020;-91
2021/08/27 09:42:09;;;;;;;0.00;0.00;;;22.10;86.00;;;;;;5098560;28;20044;-91
2021/08/27 09:44:35;;;;;;;0.00;0.00;;;22.10;86.00;;;;;;5078169;28;20024;-91
2021/08/27 09:47:07;;;;;;;0.00;0.00;;;22.30;85.80;;;;;;5078153;28;20051;-92
2021/08/27 09:49:37;;;;;;;0.00;0.00;;;22.40;85.00;;;;;;5078231;28;20483;-90
2021/08/27 09:52:11;;;;;;;0.00;0.00;;;22.60;84.90;;;;;;5076034;28;20035;-88
2021/08/27 09:54:39;;;;;;;0.00;0.00;;;22.80;83.30;;;;;;5077010;28;20020;-92
2021/08/27 09:57:07;;;;;;;0.00;0.00;;;22.90;82.60;;;;;;5077170;28;20032;-92
2021/08/27 09:59:49;;;;;;;0.00;0.00;;;23.10;81.80;;;;;;5083618;28;20116;-91
2021/08/27 10:02:16;;;;;;;0.00;0.00;;;23.30;79.90;;;;;;5083066;28;20032;-93
2021/08/27 10:04:57;;;;;;;0.00;0.00;;;23.40;80.50;;;;;;5080660;28;20027;-91
2021/08/27 10:07:34;;;;;;;0.00;0.00;;;23.80;79.30;;;;;;5079647;28;20024;-90
2021/08/27 10:10:04;;;;;;;0.00;0.00;;;23.90;77.20;;;;;;5084512;28;20068;-88
2021/08/27 10:12:32;;;;;;;0.00;0.00;;;23.90;77.30;;;;;;5084894;28;20076;-89
2021/08/27 10:14:59;;;;;;;0.00;0.00;;;23.70;76.40;;;;;;5080083;28;20080;-90
2021/08/27 10:17:25;;;;;;;0.00;0.00;;;23.50;76.50;;;;;;5079456;28;20051;-91
2021/08/27 10:19:51;;;;;;;0.00;0.00;;;23.30;77.00;;;;;;5075030;28;20040;-90
2021/08/27 10:22:17;;;;;;;0.00;0.00;;;23.20;76.50;;;;;;5075568;28;20516;-91
2021/08/27 10:24:44;;;;;;;0.00;0.00;;;23.10;77.20;;;;;;5077222;28;20393;-91
2021/08/27 10:27:11;;;;;;;0.00;0.00;;;23.10;77.40;;;;;;5077680;28;20054;-92
2021/08/27 10:29:56;;;;;;;0.05;0.05;;;23.30;77.50;;;;;;5078271;28;20513;-93
2021/08/27 10:32:40;;;;;;;0.00;0.00;;;23.40;76.50;;;;;;5080867;28;20028;-91
2021/08/27 10:35:10;;;;;;;0.00;0.00;;;23.60;75.70;;;;;;5095314;28;20024;-91
2021/08/27 10:37:49;;;;;;;0.00;0.00;;;23.60;75.60;;;;;;5077870;28;20036;-92
2021/08/27 10:40:27;;;;;;;0.00;0.00;;;23.70;74.70;;;;;;5076782;28;20481;-91
2021/08/27 10:42:56;;;;;;;0.00;0.00;;;23.70;75.00;;;;;;5076858;28;20032;-92
2021/08/27 10:45:42;;;;;;;0.00;0.00;;;23.70;74.50;;;;;;5076514;28;20038;-90
2021/08/27 10:48:09;;;;;;;0.00;0.00;;;23.60;73.90;;;;;;5062599;28;20111;-90
2021/08/27 10:50:35;;;;;;;0.00;0.00;;;23.30;74.90;;;;;;5076675;28;20101;-90
2021/08/27 10:53:31;;;;;;;0.00;0.00;;;23.30;74.80;;;;;;5095668;28;20028;-91
2021/08/27 10:56:00;;;;;;;0.00;0.00;;;23.20;75.10;;;;;;5071024;28;20036;-90
2021/08/27 10:58:53;;;;;;;0.00;0.00;;;23.20;75.50;;;;;;5076238;28;20020;-91
2021/08/27 11:01:32;;;;;;;0.00;0.00;;;23.30;74.90;;;;;;5078969;28;20051;-92
2021/08/27 11:04:03;;;;;;;0.00;0.00;;;23.30;75.60;;;;;;5076439;28;20086;-90
2021/08/27 11:06:31;;;;;;;0.00;0.00;;;23.70;75.90;;;;;;5078492;28;20036;-90
2021/08/27 11:09:17;;;;;;;0.00;0.00;;;24.20;75.20;;;;;;5076956;28;20024;-92
2021/08/27 11:11:44;;;;;;;0.00;0.00;;;24.60;72.90;;;;;;5078150;28;20477;-91
2021/08/27 11:14:18;;;;;;;0.00;0.00;;;24.80;72.20;;;;;;5077038;28;20427;-91
2021/08/27 11:16:55;;;;;;;0.00;0.00;;;25.10;72.00;;;;;;5077677;28;20057;-91
2021/08/27 11:19:29;;;;;;;0.00;0.00;;;25.70;70.50;;;;;;5076572;28;20065;-90
2021/08/27 11:22:11;;;;;;;0.00;0.00;;;26.40;69.10;;;;;;5077871;28;20044;-93
2021/08/27 11:25:02;;;;;;;0.00;0.00;;;26.70;67.80;;;;;;5080222;28;20059;-91
2021/08/27 11:27:32;;;;;;;0.00;0.00;;;27.00;64.40;;;;;;5077126;28;20063;-92
2021/08/27 11:30:01;;;;;;;0.00;0.00;;;26.90;65.20;;;;;;5076335;28;20032;-91
2021/08/27 11:32:27;;;;;;;0.00;0.00;;;27.00;65.60;;;;;;5080015;28;20027;-88
2021/08/27 11:34:59;;;;;;;0.00;0.00;;;27.40;65.50;;;;;;5083799;28;20028;-90
2021/08/27 11:37:43;;;;;;;0.00;0.00;;;28.30;65.10;;;;;;5083853;28;20058;-91
2021/08/27 11:40:14;;;;;;;0.00;0.00;;;29.80;62.10;;;;;;5080096;28;20043;-91
2021/08/27 11:42:42;;;;;;;0.00;0.00;;;30.60;60.20;;;;;;5082466;28;20043;-89
2021/08/27 11:45:17;;;;;;;0.00;0.00;;;30.70;58.70;;;;;;5083753;28;20048;-91
2021/08/27 11:47:47;;;;;;;0.00;0.00;;;30.50;58.70;;;;;;5093627;28;20028;-91
2021/08/27 11:50:38;;;;;;;0.10;0.00;;;30.30;57.30;;;;;;5095261;28;20111;-91
2021/08/27 11:53:05;;;;;;;0.00;0.00;;;30.40;58.00;;;;;;5068249;28;20032;-91
2021/08/27 11:55:39;;;;;;;0.00;0.00;;;30.80;58.50;;;;;;5076739;28;20388;-91
2021/08/27 11:58:05;;;;;;;;;;;31.50;57.20;;;;;;5074768;28;20020;-91
2021/08/27 12:00:44;;;;;;;0.00;0.00;;;32.00;55.30;;;;;;5074772;28;19960;-91
2021/08/27 12:03:12;;;;;;;0.00;0.00;;;32.60;54.80;;;;;;5077866;28;20471;-92
2021/08/27 12:05:41;;;;;;;0.00;0.00;;;33.50;55.30;;;;;;5081839;28;20490;-91
2021/08/27 12:08:09;;;;;;;0.00;0.00;;;34.50;53.80;;;;;;5078543;28;20028;-91
2021/08/27 12:10:36;;;;;;;0.00;0.00;;;35.70;52.40;;;;;;5076206;28;20032;-91
2021/08/27 12:13:05;;;;;;;0.00;0.00;;;36.70;51.40;;;;;;5075351;28;20053;-92
2021/08/27 12:15:37;;;;;;;0.00;0.00;;;37.10;49.70;;;;;;5077690;28;20028;-92
2021/08/27 12:18:09;;;;;;;0.00;0.00;;;36.50;48.70;;;;;;5080742;28;20133;-92
2021/08/27 12:20:43;;;;;;;0.00;0.00;;;35.80;48.90;;;;;;5076896;28;20028;-90
2021/08/27 12:23:13;;;;;;;0.10;0.10;;;35.80;49.50;;;;;;5094058;28;20035;-93
2021/08/27 12:25:47;;;;;;;0.00;0.00;;;36.30;49.40;;;;;;5075701;28;20020;-91
2021/08/27 12:28:16;;;;;;;0.00;0.00;;;36.90;48.80;;;;;;5075219;28;20056;-92
2021/08/27 12:30:58;;;;;;;0.00;0.00;;;37.00;47.50;;;;;;5075173;28;20032;-92
2021/08/27 12:33:26;;;;;;;0.00;0.00;;;36.70;47.10;;;;;;5087442;28;20083;-92
2021/08/27 12:35:55;;;;;;;0.00;0.00;;;36.30;46.90;;;;;;5100172;28;20012;-89
2021/08/27 12:38:21;;;;;;;0.00;0.00;;;36.20;46.70;;;;;;5100268;28;20048;-91
2021/08/27 12:40:47;;;;;;;0.00;0.00;;;36.30;46.90;;;;;;5079843;28;20079;-92
2021/08/27 12:43:23;;;;;;;0.00;0.00;;;36.90;47.10;;;;;;5078463;28;20512;-91
2021/08/27 12:45:54;;;;;;;0.00;0.00;;;37.50;44.80;;;;;;5098351;28;20030;-91
2021/08/27 12:48:20;;;;;;;0.00;0.00;;;37.30;45.90;;;;;;5079555;28;20039;-91
2021/08/27 12:50:57;;;;;;;0.00;0.00;;;36.70;45.10;;;;;;5079463;28;20040;-91
2021/08/27 12:53:31;;;;;;;0.00;0.00;;;35.60;45.20;;;;;;5079006;28;20110;-91
2021/08/27 12:56:22;;;;;;;0.00;0.00;;;34.60;46.80;;;;;;5078736;28;20025;-91
2021/08/27 12:58:54;;;;;;;0.00;0.00;;;33.50;47.30;;;;;;5078905;28;20033;-90
2021/08/27 13:01:25;;;;;;;0.00;0.00;;;32.60;48.60;;;;;;5080379;28;20024;-91
2021/08/27 13:03:52;;;;;;;0.00;0.00;;;31.60;50.10;;;;;;5081733;28;20036;-90
2021/08/27 13:06:36;;;;;;;0.00;0.00;;;31.00;51.20;;;;;;5091474;28;20086;-91